sensor_id;sensor_type;location;lat;lon;timestamp;pressure;altitude;pressure_sealevel;temperature;humidity
62333;BME280;48624;49.812;8.562;2024-02-21T00:01:34;101573.78;;;7.98;93.97
62333;BME280;48624;49.812;8.562;2024-02-21T00:03:59;101551.66;;;8.00;93.19
62333;BME280;48624;49.812;8.562;2024-02-21T00:06:24;101555.97;;;8.03;93.35
62333;BME280;48624;49.812;8.562;2024-02-21T00:08:52;101552.56;;;7.99;93.62
62333;BME280;48624;49.812;8.562;2024-02-21T00:11:18;101564.66;;;8.05;93.42
62333;BME280;48624;49.812;8.562;2024-02-21T00:13:44;101551.97;;;7.93;93.87
62333;BME280;48624;49.812;8.562;2024-02-21T00:16:10;101553.38;;;8.01;93.55
62333;BME280;48624;49.812;8.562;2024-02-21T00:18:36;101556.94;;;8.00;93.82
62333;BME280;48624;49.812;8.562;2024-02-21T00:21:02;101548.59;;;7.89;94.33
62333;BME280;48624;49.812;8.562;2024-02-21T00:23:28;101541.97;;;8.01;93.79
62333;BME280;48624;49.812;8.562;2024-02-21T00:25:53;101539.47;;;7.98;93.77
62333;BME280;48624;49.812;8.562;2024-02-21T00:28:19;101541.41;;;7.93;94.01
62333;BME280;48624;49.812;8.562;2024-02-21T00:30:44;101533.53;;;7.91;94.41
62333;BME280;48624;49.812;8.562;2024-02-21T00:33:09;101537.19;;;7.88;94.42
62333;BME280;48624;49.812;8.562;2024-02-21T00:35:35;101521.81;;;7.76;94.65
62333;BME280;48624;49.812;8.562;2024-02-21T00:38:00;101516.13;;;7.87;94.38
62333;BME280;48624;49.812;8.562;2024-02-21T00:40:25;101502.69;;;7.71;95.01
62333;BME280;48624;49.812;8.562;2024-02-21T00:42:51;101500.31;;;7.63;95.39
62333;BME280;48624;49.812;8.562;2024-02-21T00:45:16;101495.25;;;7.81;95.03
62333;BME280;48624;49.812;8.562;2024-02-21T00:47:41;101486.91;;;7.69;95.03
62333;BME280;48624;49.812;8.562;2024-02-21T00:50:07;101480.59;;;7.73;95.17
62333;BME280;48624;49.812;8.562;2024-02-21T00:52:32;101476.03;;;7.77;94.86
62333;BME280;48624;49.812;8.562;2024-02-21T00:54:58;101474.66;;;7.68;95.32
62333;BME280;48624;49.812;8.562;2024-02-21T00:57:23;101465.56;;;7.75;95.44
62333;BME280;48624;49.812;8.562;2024-02-21T00:59:49;101470.34;;;7.88;94.78
62333;BME280;48624;49.812;8.562;2024-02-21T01:02:14;101460.31;;;7.75;95.08
62333;BME280;48624;49.812;8.562;2024-02-21T01:04:39;101455.66;;;7.58;95.39
62333;BME280;48624;49.812;8.562;2024-02-21T01:07:05;101458.50;;;7.76;95.18
62333;BME280;48624;49.812;8.562;2024-02-21T01:09:30;101457.75;;;7.72;95.22
62333;BME280;48624;49.812;8.562;2024-02-21T01:11:55;101455.44;;;7.64;95.36
62333;BME280;48624;49.812;8.562;2024-02-21T01:14:21;101449.72;;;7.53;96.15
62333;BME280;48624;49.812;8.562;2024-02-21T01:16:46;101450.66;;;7.52;96.93
62333;BME280;48624;49.812;8.562;2024-02-21T01:19:12;101446.53;;;7.45;97.13
62333;BME280;48624;49.812;8.562;2024-02-21T01:21:38;101456.34;;;7.41;97.12
62333;BME280;48624;49.812;8.562;2024-02-21T01:24:04;101458.13;;;7.41;97.16
62333;BME280;48624;49.812;8.562;2024-02-21T01:26:29;101459.75;;;7.43;97.63
62333;BME280;48624;49.812;8.562;2024-02-21T01:29:04;101461.31;;;7.49;96.96
62333;BME280;48624;49.812;8.562;2024-02-21T01:31:48;101466.75;;;7.44;97.72
62333;BME280;48624;49.812;8.562;2024-02-21T01:34:13;101480.69;;;7.48;97.59
62333;BME280;48624;49.812;8.562;2024-02-21T01:36:40;101477.81;;;7.54;97.16
62333;BME280;48624;49.812;8.562;2024-02-21T01:39:07;101477.50;;;7.62;96.58
62333;BME280;48624;49.812;8.562;2024-02-21T01:41:34;101474.56;;;7.47;97.59
62333;BME280;48624;49.812;8.562;2024-02-21T01:43:59;101473.47;;;7.53;97.37
62333;BME280;48624;49.812;8.562;2024-02-21T01:46:25;101456.63;;;7.33;98.65
62333;BME280;48624;49.812;8.562;2024-02-21T01:48:57;101460.59;;;7.45;98.48
62333;BME280;48624;49.812;8.562;2024-02-21T01:51:23;101454.44;;;7.45;97.98
62333;BME280;48624;49.812;8.562;2024-02-21T01:53:51;101449.03;;;7.48;97.87
62333;BME280;48624;49.812;8.562;2024-02-21T01:56:18;101451.25;;;7.36;99.08
62333;BME280;48624;49.812;8.562;2024-02-21T01:58:45;101451.75;;;7.46;98.70
62333;BME280;48624;49.812;8.562;2024-02-21T02:01:11;101449.28;;;7.42;98.81
62333;BME280;48624;49.812;8.562;2024-02-21T02:03:37;101452.78;;;7.42;98.78
62333;BME280;48624;49.812;8.562;2024-02-21T02:06:03;101447.28;;;7.48;98.22
62333;BME280;48624;49.812;8.562;2024-02-21T02:08:31;101444.94;;;7.41;98.72
62333;BME280;48624;49.812;8.562;2024-02-21T02:10:58;101426.31;;;7.21;99.47
62333;BME280;48624;49.812;8.562;2024-02-21T02:13:24;101415.66;;;7.25;99.88
62333;BME280;48624;49.812;8.562;2024-02-21T02:15:49;101413.84;;;7.27;99.57
62333;BME280;48624;49.812;8.562;2024-02-21T02:18:16;101400.31;;;7.36;99.07
62333;BME280;48624;49.812;8.562;2024-02-21T02:20:43;101390.47;;;7.17;99.49
62333;BME280;48624;49.812;8.562;2024-02-21T02:23:11;101398.31;;;7.19;99.54
62333;BME280;48624;49.812;8.562;2024-02-21T02:25:38;101399.47;;;7.34;99.38
62333;BME280;48624;49.812;8.562;2024-02-21T02:28:05;101394.28;;;7.32;98.75
62333;BME280;48624;49.812;8.562;2024-02-21T02:30:36;101397.53;;;7.39;98.60
62333;BME280;48624;49.812;8.562;2024-02-21T02:33:06;101392.31;;;7.38;98.80
62333;BME280;48624;49.812;8.562;2024-02-21T02:35:32;101384.50;;;7.36;98.42
62333;BME280;48624;49.812;8.562;2024-02-21T02:38:02;101388.44;;;7.24;99.42
62333;BME280;48624;49.812;8.562;2024-02-21T02:40:29;101383.56;;;7.37;98.72
62333;BME280;48624;49.812;8.562;2024-02-21T02:42:54;101377.72;;;7.29;98.78
62333;BME280;48624;49.812;8.562;2024-02-21T02:45:23;101377.16;;;7.20;98.97
62333;BME280;48624;49.812;8.562;2024-02-21T02:47:49;101377.56;;;7.10;99.70
62333;BME280;48624;49.812;8.562;2024-02-21T02:50:14;101375.94;;;7.29;99.33
62333;BME280;48624;49.812;8.562;2024-02-21T02:52:40;101378.66;;;7.04;100.00
62333;BME280;48624;49.812;8.562;2024-02-21T02:55:06;101385.38;;;7.13;100.00
62333;BME280;48624;49.812;8.562;2024-02-21T02:57:32;101382.97;;;7.06;100.00
62333;BME280;48624;49.812;8.562;2024-02-21T02:59:57;101381.47;;;6.99;100.00
62333;BME280;48624;49.812;8.562;2024-02-21T03:02:23;101376.00;;;7.05;100.00
62333;BME280;48624;49.812;8.562;2024-02-21T03:04:48;101365.84;;;6.94;100.00
62333;BME280;48624;49.812;8.562;2024-02-21T03:07:14;101373.91;;;7.14;100.00
62333;BME280;48624;49.812;8.562;2024-02-21T03:09:41;101369.44;;;6.92;100.00
62333;BME280;48624;49.812;8.562;2024-02-21T03:12:08;101360.34;;;7.01;100.00
62333;BME280;48624;49.812;8.562;2024-02-21T03:14:33;101344.53;;;7.01;100.00
62333;BME280;48624;49.812;8.562;2024-02-21T03:16:59;101352.69;;;6.94;100.00
62333;BME280;48624;49.812;8.562;2024-02-21T03:19:25;101341.97;;;6.99;100.00
62333;BME280;48624;49.812;8.562;2024-02-21T03:21:51;101344.41;;;7.04;100.00
62333;BME280;48624;49.812;8.562;2024-02-21T03:24:17;101346.69;;;7.13;100.00
62333;BME280;48624;49.812;8.562;2024-02-21T03:26:42;101348.19;;;6.97;100.00
62333;BME280;48624;49.812;8.562;2024-02-21T03:29:07;101346.94;;;7.07;100.00
62333;BME280;48624;49.812;8.562;2024-02-21T03:31:34;101338.47;;;6.99;100.00
62333;BME280;48624;49.812;8.562;2024-02-21T03:34:00;101344.94;;;6.90;100.00
62333;BME280;48624;49.812;8.562;2024-02-21T03:36:25;101340.72;;;6.86;100.00
62333;BME280;48624;49.812;8.562;2024-02-21T03:38:50;101333.13;;;7.00;100.00
62333;BME280;48624;49.812;8.562;2024-02-21T03:41:16;101328.78;;;6.99;100.00
62333;BME280;48624;49.812;8.562;2024-02-21T03:43:41;101322.03;;;6.92;100.00
62333;BME280;48624;49.812;8.562;2024-02-21T03:46:06;101332.13;;;7.04;100.00
62333;BME280;48624;49.812;8.562;2024-02-21T03:48:31;101327.88;;;7.00;100.00
62333;BME280;48624;49.812;8.562;2024-02-21T03:50:57;101319.47;;;6.90;100.00
62333;BME280;48624;49.812;8.562;2024-02-21T03:53:23;101326.94;;;7.01;100.00
62333;BME280;48624;49.812;8.562;2024-02-21T03:55:49;101328.38;;;7.10;100.00
62333;BME280;48624;49.812;8.562;2024-02-21T03:58:14;101329.31;;;7.09;100.00
62333;BME280;48624;49.812;8.562;2024-02-21T04:00:39;101333.25;;;6.97;100.00
62333;BME280;48624;49.812;8.562;2024-02-21T04:03:06;101331.38;;;7.01;100.00
62333;BME280;48624;49.812;8.562;2024-02-21T04:05:31;101340.03;;;7.04;100.00
62333;BME280;48624;49.812;8.562;2024-02-21T04:07:57;101334.06;;;6.99;100.00
62333;BME280;48624;49.812;8.562;2024-02-21T04:10:22;101344.53;;;7.01;100.00
62333;BME280;48624;49.812;8.562;2024-02-21T04:12:47;101336.78;;;6.98;100.00
62333;BME280;48624;49.812;8.562;2024-02-21T04:15:15;101337.13;;;7.11;100.00
62333;BME280;48624;49.812;8.562;2024-02-21T04:17:41;101337.78;;;6.93;100.00
62333;BME280;48624;49.812;8.562;2024-02-21T04:20:06;101325.50;;;6.94;100.00
62333;BME280;48624;49.812;8.562;2024-02-21T04:22:33;101322.94;;;6.91;100.00
62333;BME280;48624;49.812;8.562;2024-02-21T04:24:59;101321.53;;;6.82;100.00
62333;BME280;48624;49.812;8.562;2024-02-21T04:27:25;101309.78;;;6.91;100.00
62333;BME280;48624;49.812;8.562;2024-02-21T04:29:50;101306.22;;;6.92;100.00
62333;BME280;48624;49.812;8.562;2024-02-21T04:32:15;101307.22;;;6.89;100.00
62333;BME280;48624;49.812;8.562;2024-02-21T04:34:41;101304.59;;;6.89;100.00
62333;BME280;48624;49.812;8.562;2024-02-21T04:37:06;101306.97;;;6.96;100.00
62333;BME280;48624;49.812;8.562;2024-02-21T04:39:31;101300.25;;;6.88;100.00
62333;BME280;48624;49.812;8.562;2024-02-21T04:41:57;101298.69;;;6.83;100.00
62333;BME280;48624;49.812;8.562;2024-02-21T04:44:24;101294.47;;;6.78;100.00
62333;BME280;48624;49.812;8.562;2024-02-21T04:46:49;101286.81;;;6.94;100.00
62333;BME280;48624;49.812;8.562;2024-02-21T04:49:15;101286.50;;;6.80;100.00
62333;BME280;48624;49.812;8.562;2024-02-21T04:51:40;101269.25;;;6.95;100.00
62333;BME280;48624;49.812;8.562;2024-02-21T04:54:06;101271.94;;;6.93;100.00
62333;BME280;48624;49.812;8.562;2024-02-21T04:56:31;101272.81;;;6.94;100.00
62333;BME280;48624;49.812;8.562;2024-02-21T04:58:56;101255.69;;;6.82;100.00
62333;BME280;48624;49.812;8.562;2024-02-21T05:01:23;101256.34;;;7.10;100.00
62333;BME280;48624;49.812;8.562;2024-02-21T05:03:48;101259.50;;;6.97;100.00
62333;BME280;48624;49.812;8.562;2024-02-21T05:06:13;101251.53;;;6.76;100.00
62333;BME280;48624;49.812;8.562;2024-02-21T05:08:40;101249.19;;;6.91;100.00
62333;BME280;48624;49.812;8.562;2024-02-21T05:11:05;101252.88;;;6.87;100.00
62333;BME280;48624;49.812;8.562;2024-02-21T05:13:30;101247.97;;;6.77;100.00
62333;BME280;48624;49.812;8.562;2024-02-21T05:15:55;101249.38;;;6.86;100.00
62333;BME280;48624;49.812;8.562;2024-02-21T05:18:22;101248.97;;;6.97;100.00
62333;BME280;48624;49.812;8.562;2024-02-21T05:20:47;101249.50;;;7.05;100.00
62333;BME280;48624;49.812;8.562;2024-02-21T05:23:12;101244.47;;;6.99;100.00
62333;BME280;48624;49.812;8.562;2024-02-21T05:25:38;101240.88;;;7.02;100.00
62333;BME280;48624;49.812;8.562;2024-02-21T05:28:03;101238.06;;;7.06;100.00
62333;BME280;48624;49.812;8.562;2024-02-21T05:30:32;101248.63;;;7.05;100.00
62333;BME280;48624;49.812;8.562;2024-02-21T05:32:58;101244.00;;;7.12;100.00
62333;BME280;48624;49.812;8.562;2024-02-21T05:35:29;101245.81;;;7.10;100.00
62333;BME280;48624;49.812;8.562;2024-02-21T05:37:54;101251.91;;;7.12;100.00
62333;BME280;48624;49.812;8.562;2024-02-21T05:40:19;101234.66;;;7.25;100.00
62333;BME280;48624;49.812;8.562;2024-02-21T05:42:46;101234.72;;;7.24;100.00
62333;BME280;48624;49.812;8.562;2024-02-21T05:45:11;101240.72;;;7.05;100.00
62333;BME280;48624;49.812;8.562;2024-02-21T05:47:38;101239.34;;;7.18;100.00
62333;BME280;48624;49.812;8.562;2024-02-21T05:50:04;101232.34;;;7.17;100.00
62333;BME280;48624;49.812;8.562;2024-02-21T05:52:30;101232.03;;;7.03;100.00
62333;BME280;48624;49.812;8.562;2024-02-21T05:54:55;101225.19;;;6.99;100.00
62333;BME280;48624;49.812;8.562;2024-02-21T05:57:21;101220.47;;;7.07;100.00
62333;BME280;48624;49.812;8.562;2024-02-21T05:59:46;101223.66;;;6.93;100.00
62333;BME280;48624;49.812;8.562;2024-02-21T06:02:13;101219.94;;;6.99;100.00
62333;BME280;48624;49.812;8.562;2024-02-21T06:04:38;101230.84;;;6.89;100.00
62333;BME280;48624;49.812;8.562;2024-02-21T06:07:04;101226.53;;;6.87;100.00
62333;BME280;48624;49.812;8.562;2024-02-21T06:09:30;101229.28;;;7.06;100.00
62333;BME280;48624;49.812;8.562;2024-02-21T06:11:55;101239.34;;;6.96;100.00
62333;BME280;48624;49.812;8.562;2024-02-21T06:14:23;101234.03;;;6.98;100.00
62333;BME280;48624;49.812;8.562;2024-02-21T06:16:48;101233.03;;;7.00;100.00
62333;BME280;48624;49.812;8.562;2024-02-21T06:19:14;101224.38;;;6.97;100.00
62333;BME280;48624;49.812;8.562;2024-02-21T06:21:39;101222.09;;;6.87;100.00
62333;BME280;48624;49.812;8.562;2024-02-21T06:24:04;101216.56;;;6.95;100.00
62333;BME280;48624;49.812;8.562;2024-02-21T06:26:30;101208.88;;;6.89;100.00
62333;BME280;48624;49.812;8.562;2024-02-21T06:28:55;101201.97;;;6.86;100.00
62333;BME280;48624;49.812;8.562;2024-02-21T06:31:21;101194.16;;;6.85;100.00
62333;BME280;48624;49.812;8.562;2024-02-21T06:33:46;101195.06;;;6.84;100.00
62333;BME280;48624;49.812;8.562;2024-02-21T06:36:13;101205.47;;;6.64;100.00
62333;BME280;48624;49.812;8.562;2024-02-21T06:38:38;101206.56;;;6.81;100.00
62333;BME280;48624;49.812;8.562;2024-02-21T06:41:03;101192.66;;;6.77;100.00
62333;BME280;48624;49.812;8.562;2024-02-21T06:43:29;101189.66;;;6.64;100.00
62333;BME280;48624;49.812;8.562;2024-02-21T06:45:54;101182.00;;;6.58;100.00
62333;BME280;48624;49.812;8.562;2024-02-21T06:48:22;101182.31;;;6.50;100.00
62333;BME280;48624;49.812;8.562;2024-02-21T06:50:47;101188.25;;;6.56;100.00
62333;BME280;48624;49.812;8.562;2024-02-21T06:53:14;101185.16;;;6.44;100.00
62333;BME280;48624;49.812;8.562;2024-02-21T06:55:40;101190.44;;;6.44;100.00
62333;BME280;48624;49.812;8.562;2024-02-21T06:58:05;101183.72;;;6.37;100.00
62333;BME280;48624;49.812;8.562;2024-02-21T07:00:30;101202.22;;;6.34;100.00
62333;BME280;48624;49.812;8.562;2024-02-21T07:02:56;101203.28;;;6.30;100.00
62333;BME280;48624;49.812;8.562;2024-02-21T07:05:21;101203.94;;;6.35;100.00
62333;BME280;48624;49.812;8.562;2024-02-21T07:07:47;101198.69;;;6.35;100.00
62333;BME280;48624;49.812;8.562;2024-02-21T07:10:15;101203.44;;;6.25;100.00
62333;BME280;48624;49.812;8.562;2024-02-21T07:12:40;101190.25;;;6.49;100.00
62333;BME280;48624;49.812;8.562;2024-02-21T07:15:09;101188.84;;;6.40;100.00
62333;BME280;48624;49.812;8.562;2024-02-21T07:17:35;101186.78;;;6.48;100.00
62333;BME280;48624;49.812;8.562;2024-02-21T07:20:00;101176.91;;;6.53;100.00
62333;BME280;48624;49.812;8.562;2024-02-21T07:22:26;101182.25;;;6.52;100.00
62333;BME280;48624;49.812;8.562;2024-02-21T07:24:52;101183.66;;;6.61;100.00
62333;BME280;48624;49.812;8.562;2024-02-21T07:27:17;101184.75;;;6.55;100.00
62333;BME280;48624;49.812;8.562;2024-02-21T07:29:45;101181.19;;;6.56;100.00
62333;BME280;48624;49.812;8.562;2024-02-21T07:32:12;101181.25;;;6.32;100.00
62333;BME280;48624;49.812;8.562;2024-02-21T07:34:38;101180.41;;;6.54;100.00
62333;BME280;48624;49.812;8.562;2024-02-21T07:37:04;101183.66;;;6.61;100.00
62333;BME280;48624;49.812;8.562;2024-02-21T07:39:29;101186.47;;;6.56;100.00
62333;BME280;48624;49.812;8.562;2024-02-21T07:41:54;101181.28;;;6.55;100.00
62333;BME280;48624;49.812;8.562;2024-02-21T07:44:21;101181.41;;;6.74;100.00
62333;BME280;48624;49.812;8.562;2024-02-21T07:46:47;101183.91;;;6.77;100.00
62333;BME280;48624;49.812;8.562;2024-02-21T07:49:14;101189.53;;;6.90;100.00
62333;BME280;48624;49.812;8.562;2024-02-21T07:51:39;101174.03;;;6.82;100.00
62333;BME280;48624;49.812;8.562;2024-02-21T07:54:04;101166.88;;;6.86;100.00
62333;BME280;48624;49.812;8.562;2024-02-21T07:56:32;101170.13;;;6.92;100.00
62333;BME280;48624;49.812;8.562;2024-02-21T07:58:59;101173.72;;;6.90;100.00
62333;BME280;48624;49.812;8.562;2024-02-21T08:01:24;101171.59;;;7.00;100.00
62333;BME280;48624;49.812;8.562;2024-02-21T08:03:51;101178.44;;;7.04;100.00
62333;BME280;48624;49.812;8.562;2024-02-21T08:06:16;101168.28;;;7.15;100.00
62333;BME280;48624;49.812;8.562;2024-02-21T08:08:43;101169.88;;;7.19;100.00
62333;BME280;48624;49.812;8.562;2024-02-21T08:11:08;101163.75;;;7.19;100.00
62333;BME280;48624;49.812;8.562;2024-02-21T08:13:33;101153.06;;;7.01;100.00
62333;BME280;48624;49.812;8.562;2024-02-21T08:15:59;101161.19;;;7.17;100.00
62333;BME280;48624;49.812;8.562;2024-02-21T08:18:25;101156.91;;;7.15;99.48
62333;BME280;48624;49.812;8.562;2024-02-21T08:20:50;101150.84;;;7.13;99.66
62333;BME280;48624;49.812;8.562;2024-02-21T08:23:16;101147.63;;;7.27;99.47
62333;BME280;48624;49.812;8.562;2024-02-21T08:25:43;101140.03;;;7.40;98.93
62333;BME280;48624;49.812;8.562;2024-02-21T08:28:08;101140.84;;;7.42;98.18
62333;BME280;48624;49.812;8.562;2024-02-21T08:30:34;101135.97;;;7.32;98.97
62333;BME280;48624;49.812;8.562;2024-02-21T08:32:59;101141.75;;;7.41;98.40
62333;BME280;48624;49.812;8.562;2024-02-21T08:35:26;101125.59;;;7.48;97.82
62333;BME280;48624;49.812;8.562;2024-02-21T08:37:52;101136.97;;;7.49;97.22
62333;BME280;48624;49.812;8.562;2024-02-21T08:40:18;101129.03;;;7.50;97.45
62333;BME280;48624;49.812;8.562;2024-02-21T08:42:45;101126.38;;;7.50;96.87
62333;BME280;48624;49.812;8.562;2024-02-21T08:45:11;101125.19;;;7.58;96.99
62333;BME280;48624;49.812;8.562;2024-02-21T08:47:39;101125.91;;;7.61;96.72
62333;BME280;48624;49.812;8.562;2024-02-21T08:50:05;101124.41;;;7.56;96.37
62333;BME280;48624;49.812;8.562;2024-02-21T08:52:31;101109.53;;;7.74;96.31
62333;BME280;48624;49.812;8.562;2024-02-21T08:54:58;101116.50;;;7.75;95.93
62333;BME280;48624;49.812;8.562;2024-02-21T08:57:23;101116.88;;;7.67;96.02
62333;BME280;48624;49.812;8.562;2024-02-21T08:59:50;101118.22;;;7.76;95.47
62333;BME280;48624;49.812;8.562;2024-02-21T09:02:15;101113.50;;;7.63;95.64
62333;BME280;48624;49.812;8.562;2024-02-21T09:04:44;101104.28;;;7.93;94.67
62333;BME280;48624;49.812;8.562;2024-02-21T09:07:10;101106.47;;;7.83;94.85
62333;BME280;48624;49.812;8.562;2024-02-21T09:09:36;101101.91;;;8.06;94.60
62333;BME280;48624;49.812;8.562;2024-02-21T09:12:04;101098.75;;;8.17;93.84
62333;BME280;48624;49.812;8.562;2024-02-21T09:14:36;101089.28;;;8.13;94.17
62333;BME280;48624;49.812;8.562;2024-02-21T09:17:03;101089.03;;;8.37;93.82
62333;BME280;48624;49.812;8.562;2024-02-21T09:19:29;101087.03;;;8.42;92.58
62333;BME280;48624;49.812;8.562;2024-02-21T09:21:54;101087.41;;;8.71;93.17
62333;BME280;48624;49.812;8.562;2024-02-21T09:24:20;101086.72;;;8.67;92.28
62333;BME280;48624;49.812;8.562;2024-02-21T09:26:45;101080.56;;;8.67;90.92
62333;BME280;48624;49.812;8.562;2024-02-21T09:29:11;101078.94;;;8.64;90.36
62333;BME280;48624;49.812;8.562;2024-02-21T09:31:38;101080.09;;;8.76;88.41
62333;BME280;48624;49.812;8.562;2024-02-21T09:34:04;101081.34;;;8.86;88.88
62333;BME280;48624;49.812;8.562;2024-02-21T09:36:31;101070.16;;;8.81;88.03
62333;BME280;48624;49.812;8.562;2024-02-21T09:38:56;101062.78;;;8.70;87.94
62333;BME280;48624;49.812;8.562;2024-02-21T09:41:26;101060.38;;;8.83;87.99
62333;BME280;48624;49.812;8.562;2024-02-21T09:43:54;101051.28;;;8.71;86.62
62333;BME280;48624;49.812;8.562;2024-02-21T09:46:24;101057.66;;;8.85;87.33
62333;BME280;48624;49.812;8.562;2024-02-21T09:49:21;101055.06;;;9.01;87.45
62333;BME280;48624;49.812;8.562;2024-02-21T09:51:51;101053.97;;;9.05;87.24
62333;BME280;48624;49.812;8.562;2024-02-21T09:54:19;101049.53;;;9.23;86.60
62333;BME280;48624;49.812;8.562;2024-02-21T09:56:46;101055.34;;;9.30;85.20
62333;BME280;48624;49.812;8.562;2024-02-21T09:59:14;101057.78;;;9.17;85.13
62333;BME280;48624;49.812;8.562;2024-02-21T10:01:47;101059.00;;;9.27;84.60
62333;BME280;48624;49.812;8.562;2024-02-21T10:04:12;101057.38;;;9.58;84.54
62333;BME280;48624;49.812;8.562;2024-02-21T10:06:38;101044.94;;;9.27;83.48
62333;BME280;48624;49.812;8.562;2024-02-21T10:09:06;101050.78;;;9.66;83.21
62333;BME280;48624;49.812;8.562;2024-02-21T10:11:31;101045.19;;;9.72;83.75
62333;BME280;48624;49.812;8.562;2024-02-21T10:14:09;101037.50;;;9.67;83.73
62333;BME280;48624;49.812;8.562;2024-02-21T10:16:35;101032.44;;;9.63;83.40
62333;BME280;48624;49.812;8.562;2024-02-21T10:19:05;101030.44;;;9.68;82.67
62333;BME280;48624;49.812;8.562;2024-02-21T10:21:32;101020.00;;;9.97;83.83
62333;BME280;48624;49.812;8.562;2024-02-21T10:23:58;101016.00;;;9.90;82.88
62333;BME280;48624;49.812;8.562;2024-02-21T10:26:24;101018.81;;;10.03;82.96
62333;BME280;48624;49.812;8.562;2024-02-21T10:28:49;101022.25;;;10.19;82.08
62333;BME280;48624;49.812;8.562;2024-02-21T10:33:58;101002.66;;;10.07;80.67
62333;BME280;48624;49.812;8.562;2024-02-21T10:36:24;101001.19;;;10.18;81.80
62333;BME280;48624;49.812;8.562;2024-02-21T10:38:52;101000.06;;;10.22;81.53
62333;BME280;48624;49.812;8.562;2024-02-21T10:41:20;100993.06;;;10.21;80.32
62333;BME280;48624;49.812;8.562;2024-02-21T10:43:51;100977.41;;;10.32;80.10
62333;BME280;48624;49.812;8.562;2024-02-21T10:46:21;100988.00;;;10.32;81.14
62333;BME280;48624;49.812;8.562;2024-02-21T10:48:47;100984.69;;;10.12;80.17
62333;BME280;48624;49.812;8.562;2024-02-21T10:51:17;100989.03;;;10.46;80.33
62333;BME280;48624;49.812;8.562;2024-02-21T10:54:01;100981.53;;;10.22;79.13
62333;BME280;48624;49.812;8.562;2024-02-21T10:56:31;100978.78;;;10.23;79.57
62333;BME280;48624;49.812;8.562;2024-02-21T10:59:02;100980.41;;;10.26;79.64
62333;BME280;48624;49.812;8.562;2024-02-21T11:01:28;100965.84;;;10.49;79.75
62333;BME280;48624;49.812;8.562;2024-02-21T11:03:58;100971.00;;;10.36;80.48
62333;BME280;48624;49.812;8.562;2024-02-21T11:06:26;100964.06;;;10.34;79.07
62333;BME280;48624;49.812;8.562;2024-02-21T11:09:09;100964.63;;;10.55;79.27
62333;BME280;48624;49.812;8.562;2024-02-21T11:11:38;100947.84;;;10.40;79.18
62333;BME280;48624;49.812;8.562;2024-02-21T11:16:42;100942.69;;;10.67;79.06
62333;BME280;48624;49.812;8.562;2024-02-21T11:19:09;100935.38;;;10.42;78.74
62333;BME280;48624;49.812;8.562;2024-02-21T11:21:36;100937.66;;;10.48;78.80
62333;BME280;48624;49.812;8.562;2024-02-21T11:24:04;100926.44;;;10.74;77.54
62333;BME280;48624;49.812;8.562;2024-02-21T11:26:32;100916.28;;;10.95;77.01
62333;BME280;48624;49.812;8.562;2024-02-21T11:29:00;100914.69;;;10.63;77.73
62333;BME280;48624;49.812;8.562;2024-02-21T11:31:39;100905.78;;;10.79;77.59
62333;BME280;48624;49.812;8.562;2024-02-21T11:34:12;100912.59;;;10.68;77.38
62333;BME280;48624;49.812;8.562;2024-02-21T11:36:48;100900.28;;;10.96;78.18
62333;BME280;48624;49.812;8.562;2024-02-21T11:39:24;100889.69;;;10.96;75.55
62333;BME280;48624;49.812;8.562;2024-02-21T11:42:07;100893.47;;;11.07;75.52
62333;BME280;48624;49.812;8.562;2024-02-21T11:44:36;100878.19;;;11.25;75.18
62333;BME280;48624;49.812;8.562;2024-02-21T11:47:07;100869.75;;;11.18;75.04
62333;BME280;48624;49.812;8.562;2024-02-21T11:49:36;100869.53;;;11.36;74.79
62333;BME280;48624;49.812;8.562;2024-02-21T11:52:03;100866.84;;;11.08;76.27
62333;BME280;48624;49.812;8.562;2024-02-21T11:54:32;100862.75;;;11.32;75.11
62333;BME280;48624;49.812;8.562;2024-02-21T11:56:59;100862.66;;;11.46;73.25
62333;BME280;48624;49.812;8.562;2024-02-21T11:59:24;100854.88;;;11.58;74.18
62333;BME280;48624;49.812;8.562;2024-02-21T12:01:49;100849.63;;;11.84;73.32
62333;BME280;48624;49.812;8.562;2024-02-21T12:04:17;100844.88;;;11.48;73.61
62333;BME280;48624;49.812;8.562;2024-02-21T12:06:45;100833.78;;;11.14;74.80
62333;BME280;48624;49.812;8.562;2024-02-21T12:09:13;100831.41;;;11.24;74.54
62333;BME280;48624;49.812;8.562;2024-02-21T12:11:39;100827.25;;;11.20;74.47
62333;BME280;48624;49.812;8.562;2024-02-21T12:14:04;100822.84;;;11.61;73.83
62333;BME280;48624;49.812;8.562;2024-02-21T12:16:35;100812.69;;;11.40;73.68
62333;BME280;48624;49.812;8.562;2024-02-21T12:19:02;100813.38;;;11.29;73.89
62333;BME280;48624;49.812;8.562;2024-02-21T12:21:33;100800.47;;;11.37;74.21
62333;BME280;48624;49.812;8.562;2024-02-21T12:24:21;100794.69;;;11.58;73.96
62333;BME280;48624;49.812;8.562;2024-02-21T12:26:46;100788.78;;;11.80;72.47
62333;BME280;48624;49.812;8.562;2024-02-21T12:29:12;100784.84;;;11.73;73.85
62333;BME280;48624;49.812;8.562;2024-02-21T12:31:38;100780.28;;;11.62;73.03
62333;BME280;48624;49.812;8.562;2024-02-21T12:34:05;100773.00;;;12.05;70.76
62333;BME280;48624;49.812;8.562;2024-02-21T12:36:31;100776.16;;;11.31;72.19
62333;BME280;48624;49.812;8.562;2024-02-21T12:38:57;100766.13;;;11.49;73.34
62333;BME280;48624;49.812;8.562;2024-02-21T12:41:22;100757.63;;;11.44;72.57
62333;BME280;48624;49.812;8.562;2024-02-21T12:43:47;100751.09;;;11.62;71.92
62333;BME280;48624;49.812;8.562;2024-02-21T12:46:13;100748.25;;;12.04;71.41
62333;BME280;48624;49.812;8.562;2024-02-21T12:48:38;100737.94;;;11.87;71.95
62333;BME280;48624;49.812;8.562;2024-02-21T12:51:05;100744.63;;;12.31;69.07
62333;BME280;48624;49.812;8.562;2024-02-21T12:53:30;100738.88;;;11.60;70.76
62333;BME280;48624;49.812;8.562;2024-02-21T12:55:56;100718.81;;;11.82;71.49
62333;BME280;48624;49.812;8.562;2024-02-21T12:58:21;100725.31;;;11.90;70.39